sensor_id;sensor_type;location;lat;lon;timestamp;pressure;altitude;pressure_sealevel;temperature;humidity
19676;BME280;39539;52.202;9.876;2022-08-24T00:01:12;101120.38;;;19.12;71.06
19676;BME280;39539;52.202;9.876;2022-08-24T00:03:38;101101.38;;;18.97;71.45
19676;BME280;39539;52.202;9.876;2022-08-24T00:06:07;101126.88;;;19.16;69.64
19676;BME280;39539;52.202;9.876;2022-08-24T00:08:35;101123.66;;;19.14;70.22
19676;BME280;39539;52.202;9.876;2022-08-24T00:11:01;101120.91;;;19.09;71.32
19676;BME280;39539;52.202;9.876;2022-08-24T00:13:27;101114.88;;;19.02;71.63
19676;BME280;39539;52.202;9.876;2022-08-24T00:15:52;101112.53;;;18.83;71.80
19676;BME280;39539;52.202;9.876;2022-08-24T00:18:18;101130.81;;;18.81;72.60
19676;BME280;39539;52.202;9.876;2022-08-24T00:20:44;101130.19;;;18.74;74.18
19676;BME280;39539;52.202;9.876;2022-08-24T00:23:09;101134.91;;;18.67;74.91
19676;BME280;39539;52.202;9.876;2022-08-24T00:25:35;101122.78;;;18.48;75.85
19676;BME280;39539;52.202;9.876;2022-08-24T00:28:02;101137.31;;;18.47;76.18
19676;BME280;39539;52.202;9.876;2022-08-24T00:30:27;101128.94;;;18.43;74.92
19676;BME280;39539;52.202;9.876;2022-08-24T00:32:54;101127.47;;;18.35;76.05
19676;BME280;39539;52.202;9.876;2022-08-24T00:35:20;101136.28;;;18.31;77.17
19676;BME280;39539;52.202;9.876;2022-08-24T00:37:47;101119.66;;;18.17;77.81
19676;BME280;39539;52.202;9.876;2022-08-24T00:42:47;101134.00;;;18.23;77.13
19676;BME280;39539;52.202;9.876;2022-08-24T00:45:14;101145.34;;;18.25;77.59
19676;BME280;39539;52.202;9.876;2022-08-24T00:48:05;101137.53;;;18.23;77.80
19676;BME280;39539;52.202;9.876;2022-08-24T00:50:36;101139.25;;;18.12;77.39
19676;BME280;39539;52.202;9.876;2022-08-24T00:53:09;101132.66;;;18.03;79.07
19676;BME280;39539;52.202;9.876;2022-08-24T00:55:40;101118.75;;;17.94;79.02
19676;BME280;39539;52.202;9.876;2022-08-24T00:58:13;101134.25;;;18.04;78.25
19676;BME280;39539;52.202;9.876;2022-08-24T01:00:44;101128.88;;;18.04;78.17
19676;BME280;39539;52.202;9.876;2022-08-24T01:03:12;101122.78;;;17.92;78.34
19676;BME280;39539;52.202;9.876;2022-08-24T01:05:39;101135.78;;;18.00;78.20
19676;BME280;39539;52.202;9.876;2022-08-24T01:08:08;101124.72;;;17.97;77.80
19676;BME280;39539;52.202;9.876;2022-08-24T01:10:40;101139.25;;;17.95;79.26
19676;BME280;39539;52.202;9.876;2022-08-24T01:13:08;101131.06;;;17.90;78.50
19676;BME280;39539;52.202;9.876;2022-08-24T01:15:40;101141.19;;;18.00;78.01
19676;BME280;39539;52.202;9.876;2022-08-24T01:18:07;101130.09;;;17.97;77.99
19676;BME280;39539;52.202;9.876;2022-08-24T01:23:41;101133.84;;;17.95;78.59
19676;BME280;39539;52.202;9.876;2022-08-24T01:26:11;101127.25;;;17.86;78.44
19676;BME280;39539;52.202;9.876;2022-08-24T01:28:39;101128.78;;;17.99;76.20
19676;BME280;39539;52.202;9.876;2022-08-24T01:31:06;101128.28;;;18.19;74.89
19676;BME280;39539;52.202;9.876;2022-08-24T01:33:32;101135.47;;;18.30;74.30
19676;BME280;39539;52.202;9.876;2022-08-24T01:36:14;101131.69;;;18.31;75.00
19676;BME280;39539;52.202;9.876;2022-08-24T01:38:43;101129.91;;;18.20;75.60
19676;BME280;39539;52.202;9.876;2022-08-24T01:41:09;101142.66;;;18.25;76.39
19676;BME280;39539;52.202;9.876;2022-08-24T01:43:34;101134.97;;;18.16;76.46
19676;BME280;39539;52.202;9.876;2022-08-24T01:46:00;101128.97;;;18.09;77.46
19676;BME280;39539;52.202;9.876;2022-08-24T01:48:25;101133.84;;;18.12;77.08
19676;BME280;39539;52.202;9.876;2022-08-24T01:50:51;101142.16;;;18.11;77.26
19676;BME280;39539;52.202;9.876;2022-08-24T01:53:17;101133.69;;;18.02;77.95
19676;BME280;39539;52.202;9.876;2022-08-24T01:55:43;101142.06;;;18.06;77.85
19676;BME280;39539;52.202;9.876;2022-08-24T01:58:09;101140.28;;;18.11;77.76
19676;BME280;39539;52.202;9.876;2022-08-24T02:00:35;101128.47;;;17.95;77.91
19676;BME280;39539;52.202;9.876;2022-08-24T02:03:02;101149.00;;;18.02;78.44
19676;BME280;39539;52.202;9.876;2022-08-24T02:05:27;101135.38;;;17.91;79.23
19676;BME280;39539;52.202;9.876;2022-08-24T02:07:53;101130.75;;;17.87;78.98
19676;BME280;39539;52.202;9.876;2022-08-24T02:10:19;101147.00;;;17.92;79.57
19676;BME280;39539;52.202;9.876;2022-08-24T02:12:46;101159.09;;;17.94;79.56
19676;BME280;39539;52.202;9.876;2022-08-24T02:15:42;101155.06;;;17.92;79.96
19676;BME280;39539;52.202;9.876;2022-08-24T02:18:09;101151.47;;;17.86;80.89
19676;BME280;39539;52.202;9.876;2022-08-24T02:20:36;101153.91;;;17.88;81.46
19676;BME280;39539;52.202;9.876;2022-08-24T02:23:03;101166.44;;;17.82;81.95
19676;BME280;39539;52.202;9.876;2022-08-24T02:25:29;101168.91;;;17.84;81.15
19676;BME280;39539;52.202;9.876;2022-08-24T02:27:57;101156.75;;;17.81;81.18
19676;BME280;39539;52.202;9.876;2022-08-24T02:30:23;101163.16;;;17.80;80.41
19676;BME280;39539;52.202;9.876;2022-08-24T02:32:49;101171.44;;;17.90;80.37
19676;BME280;39539;52.202;9.876;2022-08-24T02:35:15;101172.81;;;18.10;80.05
19676;BME280;39539;52.202;9.876;2022-08-24T02:37:41;101161.56;;;18.13;78.93
19676;BME280;39539;52.202;9.876;2022-08-24T02:40:08;101174.75;;;18.31;77.46
19676;BME280;39539;52.202;9.876;2022-08-24T02:42:34;101168.06;;;18.34;77.25
19676;BME280;39539;52.202;9.876;2022-08-24T02:45:00;101158.78;;;18.25;77.99
19676;BME280;39539;52.202;9.876;2022-08-24T02:47:26;101166.63;;;18.26;78.63
19676;BME280;39539;52.202;9.876;2022-08-24T02:49:52;101154.06;;;18.15;79.88
19676;BME280;39539;52.202;9.876;2022-08-24T02:52:17;101170.84;;;18.22;80.25
19676;BME280;39539;52.202;9.876;2022-08-24T02:54:43;101169.06;;;18.28;79.48
19676;BME280;39539;52.202;9.876;2022-08-24T02:57:08;101171.84;;;18.33;79.53
19676;BME280;39539;52.202;9.876;2022-08-24T02:59:34;101177.00;;;18.34;78.87
19676;BME280;39539;52.202;9.876;2022-08-24T03:01:59;101174.59;;;18.38;78.94
19676;BME280;39539;52.202;9.876;2022-08-24T03:04:24;101173.31;;;18.40;78.68
19676;BME280;39539;52.202;9.876;2022-08-24T03:06:50;101178.28;;;18.49;79.45
19676;BME280;39539;52.202;9.876;2022-08-24T03:09:16;101166.34;;;18.45;79.54
19676;BME280;39539;52.202;9.876;2022-08-24T03:11:41;101168.25;;;18.44;80.38
19676;BME280;39539;52.202;9.876;2022-08-24T03:14:07;101177.81;;;18.57;79.31
19676;BME280;39539;52.202;9.876;2022-08-24T03:16:32;101176.38;;;18.66;79.85
19676;BME280;39539;52.202;9.876;2022-08-24T03:18:58;101176.91;;;18.68;79.64
19676;BME280;39539;52.202;9.876;2022-08-24T03:21:25;101176.38;;;18.66;79.27
19676;BME280;39539;52.202;9.876;2022-08-24T03:23:51;101184.53;;;18.71;79.72
19676;BME280;39539;52.202;9.876;2022-08-24T03:26:17;101176.97;;;18.73;79.83
19676;BME280;39539;52.202;9.876;2022-08-24T03:28:43;101181.34;;;18.74;79.97
19676;BME280;39539;52.202;9.876;2022-08-24T03:31:08;101172.44;;;18.74;80.03
19676;BME280;39539;52.202;9.876;2022-08-24T03:33:33;101151.47;;;18.59;80.51
19676;BME280;39539;52.202;9.876;2022-08-24T03:35:59;101167.63;;;18.59;80.71
19676;BME280;39539;52.202;9.876;2022-08-24T03:38:25;101175.97;;;18.57;80.59
19676;BME280;39539;52.202;9.876;2022-08-24T03:40:50;101178.31;;;18.54;80.72
19676;BME280;39539;52.202;9.876;2022-08-24T03:43:16;101170.19;;;18.49;81.07
19676;BME280;39539;52.202;9.876;2022-08-24T03:46:00;101166.66;;;18.48;78.46
19676;BME280;39539;52.202;9.876;2022-08-24T03:48:28;101180.69;;;18.50;78.19
19676;BME280;39539;52.202;9.876;2022-08-24T03:50:54;101176.50;;;18.37;78.40
19676;BME280;39539;52.202;9.876;2022-08-24T03:53:20;101178.53;;;18.30;79.55
19676;BME280;39539;52.202;9.876;2022-08-24T03:55:47;101160.50;;;18.14;80.08
19676;BME280;39539;52.202;9.876;2022-08-24T03:58:13;101156.00;;;18.03;81.11
19676;BME280;39539;52.202;9.876;2022-08-24T04:00:38;101170.53;;;18.02;83.07
19676;BME280;39539;52.202;9.876;2022-08-24T04:03:08;101176.16;;;18.00;83.44
19676;BME280;39539;52.202;9.876;2022-08-24T04:05:34;101175.72;;;17.91;83.75
19676;BME280;39539;52.202;9.876;2022-08-24T04:08:00;101175.03;;;17.96;83.40
19676;BME280;39539;52.202;9.876;2022-08-24T04:10:26;101166.84;;;17.91;82.90
19676;BME280;39539;52.202;9.876;2022-08-24T04:12:51;101174.59;;;17.87;83.06
19676;BME280;39539;52.202;9.876;2022-08-24T04:15:21;101192.16;;;18.07;82.57
19676;BME280;39539;52.202;9.876;2022-08-24T04:17:50;101181.38;;;18.07;82.36
19676;BME280;39539;52.202;9.876;2022-08-24T04:20:16;101182.78;;;18.09;81.47
19676;BME280;39539;52.202;9.876;2022-08-24T04:22:42;101188.56;;;18.18;81.10
19676;BME280;39539;52.202;9.876;2022-08-24T04:25:09;101194.44;;;18.15;80.96
19676;BME280;39539;52.202;9.876;2022-08-24T04:27:35;101188.16;;;18.09;81.13
19676;BME280;39539;52.202;9.876;2022-08-24T04:30:00;101177.53;;;17.86;81.50
19676;BME280;39539;52.202;9.876;2022-08-24T04:32:30;101178.16;;;17.76;82.43
19676;BME280;39539;52.202;9.876;2022-08-24T04:34:55;101180.03;;;17.76;82.58
19676;BME280;39539;52.202;9.876;2022-08-24T04:37:23;101191.81;;;17.86;82.41
19676;BME280;39539;52.202;9.876;2022-08-24T04:39:49;101192.84;;;17.85;82.39
19676;BME280;39539;52.202;9.876;2022-08-24T04:42:14;101192.25;;;17.83;83.26
19676;BME280;39539;52.202;9.876;2022-08-24T04:44:39;101192.38;;;17.88;83.64
19676;BME280;39539;52.202;9.876;2022-08-24T04:47:05;101190.94;;;17.98;83.43
19676;BME280;39539;52.202;9.876;2022-08-24T04:49:32;101196.84;;;18.00;83.61
19676;BME280;39539;52.202;9.876;2022-08-24T04:51:58;101191.56;;;18.05;84.04
19676;BME280;39539;52.202;9.876;2022-08-24T04:54:23;101206.00;;;18.15;83.54
19676;BME280;39539;52.202;9.876;2022-08-24T04:56:49;101212.28;;;18.21;83.51
19676;BME280;39539;52.202;9.876;2022-08-24T04:59:14;101202.50;;;18.15;83.92
19676;BME280;39539;52.202;9.876;2022-08-24T05:01:40;101192.25;;;18.12;82.97
19676;BME280;39539;52.202;9.876;2022-08-24T05:04:07;101213.09;;;18.22;81.73
19676;BME280;39539;52.202;9.876;2022-08-24T05:06:32;101210.81;;;18.13;82.14
19676;BME280;39539;52.202;9.876;2022-08-24T05:08:58;101207.63;;;18.00;82.49
19676;BME280;39539;52.202;9.876;2022-08-24T05:11:24;101205.09;;;17.93;82.73
19676;BME280;39539;52.202;9.876;2022-08-24T05:13:53;101214.72;;;17.77;83.03
19676;BME280;39539;52.202;9.876;2022-08-24T05:16:19;101209.22;;;17.55;84.27
19676;BME280;39539;52.202;9.876;2022-08-24T05:18:46;101214.28;;;17.68;84.42
19676;BME280;39539;52.202;9.876;2022-08-24T05:21:14;101240.59;;;17.78;83.77
19676;BME280;39539;52.202;9.876;2022-08-24T05:23:41;101225.19;;;17.62;84.56
19676;BME280;39539;52.202;9.876;2022-08-24T05:26:09;101230.31;;;17.75;85.55
19676;BME280;39539;52.202;9.876;2022-08-24T05:28:36;101243.88;;;17.97;85.20
19676;BME280;39539;52.202;9.876;2022-08-24T05:31:10;101249.38;;;18.19;85.47
19676;BME280;39539;52.202;9.876;2022-08-24T05:33:36;101248.81;;;18.34;84.39
19676;BME280;39539;52.202;9.876;2022-08-24T05:36:05;101233.97;;;18.14;83.74
19676;BME280;39539;52.202;9.876;2022-08-24T05:38:31;101235.31;;;18.00;85.76
19676;BME280;39539;52.202;9.876;2022-08-24T05:41:04;101235.28;;;17.83;86.35
19676;BME280;39539;52.202;9.876;2022-08-24T05:43:29;101228.28;;;17.82;87.14
19676;BME280;39539;52.202;9.876;2022-08-24T05:45:55;101226.34;;;17.94;86.75
19676;BME280;39539;52.202;9.876;2022-08-24T05:48:21;101240.13;;;17.81;88.25
19676;BME280;39539;52.202;9.876;2022-08-24T05:50:52;101234.88;;;18.03;87.90
19676;BME280;39539;52.202;9.876;2022-08-24T05:53:18;101236.41;;;18.16;87.21
19676;BME280;39539;52.202;9.876;2022-08-24T05:55:49;101223.69;;;18.45;86.34
19676;BME280;39539;52.202;9.876;2022-08-24T05:58:15;101235.44;;;19.56;81.50
19676;BME280;39539;52.202;9.876;2022-08-24T06:00:42;101223.50;;;20.01;78.51
19676;BME280;39539;52.202;9.876;2022-08-24T06:03:15;101208.56;;;20.20;76.56
19676;BME280;39539;52.202;9.876;2022-08-24T06:05:46;101213.63;;;20.86;74.74
19676;BME280;39539;52.202;9.876;2022-08-24T06:08:14;101197.19;;;22.63;67.19
19676;BME280;39539;52.202;9.876;2022-08-24T06:10:42;101183.66;;;25.75;57.09
19676;BME280;39539;52.202;9.876;2022-08-24T06:13:14;101156.25;;;28.41;49.85
19676;BME280;39539;52.202;9.876;2022-08-24T06:15:43;101138.22;;;30.10;45.83
19676;BME280;39539;52.202;9.876;2022-08-24T06:18:09;101117.72;;;30.84;43.45
19676;BME280;39539;52.202;9.876;2022-08-24T06:20:41;101125.13;;;32.38;41.82
19676;BME280;39539;52.202;9.876;2022-08-24T06:23:09;101108.47;;;33.08;40.16
19676;BME280;39539;52.202;9.876;2022-08-24T06:25:38;101088.63;;;33.30;39.24
19676;BME280;39539;52.202;9.876;2022-08-24T06:28:24;101096.59;;;34.08;38.36
19676;BME280;39539;52.202;9.876;2022-08-24T06:30:49;101101.81;;;35.15;36.82
19676;BME280;39539;52.202;9.876;2022-08-24T06:33:16;101099.16;;;34.83;36.69
19676;BME280;39539;52.202;9.876;2022-08-24T06:35:43;101102.69;;;35.00;37.12
19676;BME280;39539;52.202;9.876;2022-08-24T06:38:09;101104.31;;;35.04;36.29
19676;BME280;39539;52.202;9.876;2022-08-24T06:40:35;101103.81;;;34.79;36.64
19676;BME280;39539;52.202;9.876;2022-08-24T06:43:02;101112.94;;;35.58;36.42
19676;BME280;39539;52.202;9.876;2022-08-24T06:45:31;101105.25;;;36.13;35.80
19676;BME280;39539;52.202;9.876;2022-08-24T06:47:58;101118.81;;;37.69;33.79
19676;BME280;39539;52.202;9.876;2022-08-24T06:50:27;101108.75;;;38.46;32.32
19676;BME280;39539;52.202;9.876;2022-08-24T06:52:53;101114.59;;;39.00;31.70
19676;BME280;39539;52.202;9.876;2022-08-24T06:55:19;101096.34;;;38.99;32.12
19676;BME280;39539;52.202;9.876;2022-08-24T06:57:44;101090.03;;;39.13;31.53
19676;BME280;39539;52.202;9.876;2022-08-24T07:00:14;101111.63;;;39.62;31.31
19676;BME280;39539;52.202;9.876;2022-08-24T07:02:40;101104.91;;;39.78;31.16
19676;BME280;39539;52.202;9.876;2022-08-24T07:05:09;101110.06;;;40.36;30.42
19676;BME280;39539;52.202;9.876;2022-08-24T07:07:35;101100.03;;;40.68;29.30
19676;BME280;39539;52.202;9.876;2022-08-24T07:10:13;101114.00;;;39.67;30.82
19676;BME280;39539;52.202;9.876;2022-08-24T07:12:38;101106.81;;;39.52;30.80
19676;BME280;39539;52.202;9.876;2022-08-24T07:15:09;101105.53;;;39.17;31.03
19676;BME280;39539;52.202;9.876;2022-08-24T07:17:40;101099.69;;;39.44;31.02
19676;BME280;39539;52.202;9.876;2022-08-24T07:20:06;101101.22;;;39.31;30.83
19676;BME280;39539;52.202;9.876;2022-08-24T07:22:36;101100.38;;;39.16;31.02
19676;BME280;39539;52.202;9.876;2022-08-24T07:25:03;101095.50;;;38.91;31.05
19676;BME280;39539;52.202;9.876;2022-08-24T07:27:29;101113.66;;;39.80;30.23
19676;BME280;39539;52.202;9.876;2022-08-24T07:29:56;101105.28;;;40.23;29.88
19676;BME280;39539;52.202;9.876;2022-08-24T07:32:21;101102.88;;;40.43;29.43
19676;BME280;39539;52.202;9.876;2022-08-24T07:34:49;101098.13;;;39.93;30.19
19676;BME280;39539;52.202;9.876;2022-08-24T07:37:15;101101.06;;;38.91;31.16
19676;BME280;39539;52.202;9.876;2022-08-24T07:39:41;101116.28;;;40.91;29.13
19676;BME280;39539;52.202;9.876;2022-08-24T07:42:07;101116.97;;;41.20;29.31
19676;BME280;39539;52.202;9.876;2022-08-24T07:44:33;101103.88;;;41.72;28.31
19676;BME280;39539;52.202;9.876;2022-08-24T07:47:06;101105.88;;;42.24;27.84
19676;BME280;39539;52.202;9.876;2022-08-24T07:49:32;101109.22;;;42.50;27.81
19676;BME280;39539;52.202;9.876;2022-08-24T07:51:59;101111.69;;;42.78;27.43
19676;BME280;39539;52.202;9.876;2022-08-24T07:54:43;101110.34;;;42.90;27.74
19676;BME280;39539;52.202;9.876;2022-08-24T07:57:08;101101.66;;;43.15;27.57
19676;BME280;39539;52.202;9.876;2022-08-24T07:59:37;101111.19;;;44.19;25.51
19676;BME280;39539;52.202;9.876;2022-08-24T08:02:06;101103.47;;;43.80;26.27
19676;BME280;39539;52.202;9.876;2022-08-24T08:04:38;101126.63;;;44.07;26.64
19676;BME280;39539;52.202;9.876;2022-08-24T08:07:05;101118.19;;;44.74;25.36
19676;BME280;39539;52.202;9.876;2022-08-24T08:09:38;101120.78;;;44.85;25.49
19676;BME280;39539;52.202;9.876;2022-08-24T08:12:04;101109.19;;;44.43;24.90
19676;BME280;39539;52.202;9.876;2022-08-24T08:14:31;101106.69;;;42.93;26.44
19676;BME280;39539;52.202;9.876;2022-08-24T08:16:57;101116.06;;;43.10;26.15
19676;BME280;39539;52.202;9.876;2022-08-24T08:19:24;101128.00;;;41.41;27.68
19676;BME280;39539;52.202;9.876;2022-08-24T08:21:52;101129.94;;;42.90;27.33
19676;BME280;39539;52.202;9.876;2022-08-24T08:24:48;101128.59;;;43.33;26.22
19676;BME280;39539;52.202;9.876;2022-08-24T08:27:15;101118.53;;;44.56;25.46
19676;BME280;39539;52.202;9.876;2022-08-24T08:29:45;101126.97;;;45.13;24.52
19676;BME280;39539;52.202;9.876;2022-08-24T08:32:12;101117.31;;;44.37;25.19
19676;BME280;39539;52.202;9.876;2022-08-24T08:34:42;101117.41;;;44.74;25.79
19676;BME280;39539;52.202;9.876;2022-08-24T08:37:09;101123.22;;;45.72;24.13
19676;BME280;39539;52.202;9.876;2022-08-24T08:39:35;101103.06;;;44.25;25.24
19676;BME280;39539;52.202;9.876;2022-08-24T08:45:34;101110.84;;;44.60;24.96
19676;BME280;39539;52.202;9.876;2022-08-24T08:51:20;101105.81;;;43.00;25.02
19676;BME280;39539;52.202;9.876;2022-08-24T08:56:49;101127.09;;;44.26;25.68
19676;BME280;39539;52.202;9.876;2022-08-24T09:22:19;101108.44;;;40.39;26.99
19676;BME280;39539;52.202;9.876;2022-08-24T09:27:33;101125.03;;;40.96;27.44
19676;BME280;39539;52.202;9.876;2022-08-24T09:30:12;101118.38;;;40.54;27.14
19676;BME280;39539;52.202;9.876;2022-08-24T09:33:07;101120.63;;;41.06;28.48
19676;BME280;39539;52.202;9.876;2022-08-24T09:39:03;101113.59;;;42.06;26.08
19676;BME280;39539;52.202;9.876;2022-08-24T09:41:44;101105.00;;;41.23;26.76
19676;BME280;39539;52.202;9.876;2022-08-24T09:44:49;101110.13;;;41.32;27.36
19676;BME280;39539;52.202;9.876;2022-08-24T09:50:43;101100.38;;;39.19;29.38
19676;BME280;39539;52.202;9.876;2022-08-24T09:53:36;101116.00;;;40.49;28.47
19676;BME280;39539;52.202;9.876;2022-08-24T09:56:32;101115.34;;;38.90;28.74
19676;BME280;39539;52.202;9.876;2022-08-24T10:05:25;101121.16;;;39.54;28.51
19676;BME280;39539;52.202;9.876;2022-08-24T10:08:08;101111.28;;;39.96;27.76
19676;BME280;39539;52.202;9.876;2022-08-24T10:11:10;101103.66;;;39.50;28.65
19676;BME280;39539;52.202;9.876;2022-08-24T10:14:02;101101.63;;;39.33;28.78
19676;BME280;39539;52.202;9.876;2022-08-24T10:16:49;101106.09;;;40.05;27.71
19676;BME280;39539;52.202;9.876;2022-08-24T10:25:05;101099.34;;;38.65;29.35
19676;BME280;39539;52.202;9.876;2022-08-24T10:30:52;101102.19;;;37.01;30.00
19676;BME280;39539;52.202;9.876;2022-08-24T10:33:28;101095.78;;;35.29;31.91
19676;BME280;39539;52.202;9.876;2022-08-24T10:36:10;101093.03;;;33.47;34.04
19676;BME280;39539;52.202;9.876;2022-08-24T10:42:03;101087.53;;;32.30;35.84
19676;BME280;39539;52.202;9.876;2022-08-24T10:44:49;101090.50;;;32.12;35.96
19676;BME280;39539;52.202;9.876;2022-08-24T10:47:27;101092.63;;;31.37;37.08
19676;BME280;39539;52.202;9.876;2022-08-24T10:55:30;101096.31;;;31.53;37.27
19676;BME280;39539;52.202;9.876;2022-08-24T11:04:27;101080.34;;;31.34;37.52
19676;BME280;39539;52.202;9.876;2022-08-24T11:07:16;101083.88;;;31.14;38.04
19676;BME280;39539;52.202;9.876;2022-08-24T11:09:52;101074.16;;;30.24;38.44
19676;BME280;39539;52.202;9.876;2022-08-24T11:12:30;101070.38;;;30.28;39.23
19676;BME280;39539;52.202;9.876;2022-08-24T11:15:00;101081.81;;;30.90;37.51
19676;BME280;39539;52.202;9.876;2022-08-24T11:17:30;101076.34;;;30.90;36.87
19676;BME280;39539;52.202;9.876;2022-08-24T11:19:56;101084.31;;;31.03;38.22
19676;BME280;39539;52.202;9.876;2022-08-24T11:22:33;101078.81;;;31.03;34.92
19676;BME280;39539;52.202;9.876;2022-08-24T11:25:08;101066.75;;;30.96;35.27
19676;BME280;39539;52.202;9.876;2022-08-24T11:30:11;101068.34;;;30.76;36.09
19676;BME280;39539;52.202;9.876;2022-08-24T11:32:42;101062.88;;;30.97;36.41
19676;BME280;39539;52.202;9.876;2022-08-24T11:38:15;101055.78;;;30.96;35.93
19676;BME280;39539;52.202;9.876;2022-08-24T11:40:50;101059.59;;;30.82;35.45
19676;BME280;39539;52.202;9.876;2022-08-24T11:51:34;101055.28;;;30.94;35.22
19676;BME280;39539;52.202;9.876;2022-08-24T11:54:16;101053.41;;;30.85;34.97
19676;BME280;39539;52.202;9.876;2022-08-24T11:59:41;101049.28;;;31.00;36.32
19676;BME280;39539;52.202;9.876;2022-08-24T12:02:15;101048.19;;;31.14;35.81
19676;BME280;39539;52.202;9.876;2022-08-24T12:04:45;101046.66;;;31.04;36.72
19676;BME280;39539;52.202;9.876;2022-08-24T12:15:14;101059.88;;;30.90;36.86
19676;BME280;39539;52.202;9.876;2022-08-24T12:17:54;101056.38;;;31.01;36.61
19676;BME280;39539;52.202;9.876;2022-08-24T12:20:41;101037.53;;;30.70;37.17
19676;BME280;39539;52.202;9.876;2022-08-24T12:23:14;101043.41;;;30.60;37.33
19676;BME280;39539;52.202;9.876;2022-08-24T12:25:44;101057.00;;;30.56;37.40
19676;BME280;39539;52.202;9.876;2022-08-24T12:28:53;101045.81;;;30.40;37.53
19676;BME280;39539;52.202;9.876;2022-08-24T12:33:53;101064.44;;;30.77;36.33
19676;BME280;39539;52.202;9.876;2022-08-24T12:36:45;101066.22;;;30.81;36.92
19676;BME280;39539;52.202;9.876;2022-08-24T12:39:21;101053.47;;;30.56;36.76
19676;BME280;39539;52.202;9.876;2022-08-24T12:42:04;101060.41;;;30.74;36.79
19676;BME280;39539;52.202;9.876;2022-08-24T12:44:40;101050.38;;;30.57;36.76
19676;BME280;39539;52.202;9.876;2022-08-24T12:47:07;101069.25;;;30.59;37.15
19676;BME280;39539;52.202;9.876;2022-08-24T12:49:47;101057.28;;;30.63;36.83
19676;BME280;39539;52.202;9.876;2022-08-24T12:53:32;101062.84;;;30.16;37.41
19676;BME280;39539;52.202;9.876;2022-08-24T13:01:10;101070.47;;;30.49;37.27
19676;BME280;39539;52.202;9.876;2022-08-24T13:03:40;101055.72;;;30.54;36.24
19676;BME280;39539;52.202;9.876;2022-08-24T13:06:10;101049.97;;;30.47;37.16
19676;BME280;39539;52.202;9.876;2022-08-24T13:08:43;101053.25;;;30.61;37.14
19676;BME280;39539;52.202;9.876;2022-08-24T13:11:27;101043.94;;;30.53;36.91
19676;BME280;39539;52.202;9.876;2022-08-24T13:16:44;101050.91;;;30.51;37.22
19676;BME280;39539;52.202;9.876;2022-08-24T13:24:50;101049.19;;;30.08;37.73
19676;BME280;39539;52.202;9.876;2022-08-24T13:29:51;101045.72;;;30.28;37.08
19676;BME280;39539;52.202;9.876;2022-08-24T13:32:30;101043.50;;;30.13;37.28
19676;BME280;39539;52.202;9.876;2022-08-24T13:34:58;101046.94;;;30.39;36.74
19676;BME280;39539;52.202;9.876;2022-08-24T13:37:26;101044.84;;;30.36;36.93
19676;BME280;39539;52.202;9.876;2022-08-24T13:40:20;101046.22;;;30.22;37.04
19676;BME280;39539;52.202;9.876;2022-08-24T13:43:19;101044.50;;;30.08;37.05
19676;BME280;39539;52.202;9.876;2022-08-24T13:52:09;101039.13;;;30.12;37.09
19676;BME280;39539;52.202;9.876;2022-08-24T13:54:43;101045.00;;;30.02;36.96
19676;BME280;39539;52.202;9.876;2022-08-24T13:57:26;101038.88;;;30.05;36.98
19676;BME280;39539;52.202;9.876;2022-08-24T14:11:06;101020.88;;;29.86;36.98
19676;BME280;39539;52.202;9.876;2022-08-24T14:16:24;101036.22;;;29.87;37.01
19676;BME280;39539;52.202;9.876;2022-08-24T14:19:17;101039.22;;;29.94;37.09
19676;BME280;39539;52.202;9.876;2022-08-24T14:22:11;101023.38;;;29.70;37.29
19676;BME280;39539;52.202;9.876;2022-08-24T14:24:43;101029.09;;;29.86;37.06
19676;BME280;39539;52.202;9.876;2022-08-24T14:36:20;101021.19;;;29.93;36.99
19676;BME280;39539;52.202;9.876;2022-08-24T14:38:57;101024.75;;;29.85;37.13
19676;BME280;39539;52.202;9.876;2022-08-24T14:41:33;101027.09;;;30.04;36.49
19676;BME280;39539;52.202;9.876;2022-08-24T14:47:05;101022.06;;;30.06;36.52
19676;BME280;39539;52.202;9.876;2022-08-24T14:55:29;101010.97;;;30.03;36.75
19676;BME280;39539;52.202;9.876;2022-08-24T14:58:05;101005.34;;;29.99;36.57
19676;BME280;39539;52.202;9.876;2022-08-24T15:00:51;100996.94;;;29.66;37.53
19676;BME280;39539;52.202;9.876;2022-08-24T15:09:26;101009.31;;;29.72;38.41
19676;BME280;39539;52.202;9.876;2022-08-24T15:12:09;101014.00;;;29.71;38.40
19676;BME280;39539;52.202;9.876;2022-08-24T15:14:46;101010.97;;;29.56;38.31
19676;BME280;39539;52.202;9.876;2022-08-24T15:17:18;101000.66;;;29.52;38.32
19676;BME280;39539;52.202;9.876;2022-08-24T15:23:03;100993.41;;;29.57;39.03
19676;BME280;39539;52.202;9.876;2022-08-24T15:25:38;101003.38;;;29.70;38.50
19676;BME280;39539;52.202;9.876;2022-08-24T15:28:23;101006.09;;;29.79;38.76
19676;BME280;39539;52.202;9.876;2022-08-24T15:31:09;100999.34;;;29.67;39.14
19676;BME280;39539;52.202;9.876;2022-08-24T15:33:57;101009.63;;;29.79;38.42
19676;BME280;39539;52.202;9.876;2022-08-24T15:36:24;100985.66;;;29.67;38.43
19676;BME280;39539;52.202;9.876;2022-08-24T15:38:50;100982.75;;;29.64;39.07
19676;BME280;39539;52.202;9.876;2022-08-24T15:41:28;100992.25;;;29.58;38.71
19676;BME280;39539;52.202;9.876;2022-08-24T15:46:47;100992.91;;;29.54;38.72
19676;BME280;39539;52.202;9.876;2022-08-24T15:49:20;100991.97;;;29.50;38.77
19676;BME280;39539;52.202;9.876;2022-08-24T15:51:52;101008.69;;;29.58;38.80
19676;BME280;39539;52.202;9.876;2022-08-24T16:05:12;100997.50;;;29.33;38.36
19676;BME280;39539;52.202;9.876;2022-08-24T16:16:01;101004.44;;;29.22;38.26
19676;BME280;39539;52.202;9.876;2022-08-24T16:18:53;101003.94;;;29.28;38.00
19676;BME280;39539;52.202;9.876;2022-08-24T16:21:32;101000.72;;;29.26;37.76